Time;durP1;ratioP1;P1;durP2;ratioP2;P2;SDS_P1;SDS_P2;PMS_P1;PMS_P2;Temp;Humidity;BMP_temperature;BMP_pressure;BME280_temperature;BME280_humidity;BME280_pressure;Samples;Min_cycle;Max_cycle;Signal;HPM_P1;HPM_P2
2021/01/22 00:00:22;;;;;;;86.28;39.13;;;6.80;99.90;;;;;;5049239;28;20071;-56
2021/01/22 00:02:48;;;;;;;101.78;45.75;;;6.80;99.90;;;;;;5064365;28;20089;-53
2021/01/22 00:05:14;;;;;;;100.35;44.20;;;6.90;99.90;;;;;;5048395;28;20033;-54
2021/01/22 00:07:40;;;;;;;129.40;45.25;;;7.00;99.90;;;;;;5050168;28;20163;-55
2021/01/22 00:10:06;;;;;;;101.05;42.83;;;7.00;99.90;;;;;;5064108;28;20047;-56
2021/01/22 00:12:32;;;;;;;119.28;39.50;;;7.00;99.90;;;;;;5064021;28;20435;-56
2021/01/22 00:14:57;;;;;;;124.68;41.70;;;6.90;99.90;;;;;;5067250;28;20119;-57
2021/01/22 00:17:23;;;;;;;89.15;41.10;;;6.90;99.90;;;;;;5065876;28;20037;-56
2021/01/22 00:19:49;;;;;;;112.20;40.63;;;6.90;99.90;;;;;;5052236;28;20040;-56
2021/01/22 00:22:14;;;;;;;123.50;41.88;;;6.90;99.90;;;;;;5058369;28;20085;-55
2021/01/22 00:24:40;;;;;;;128.82;43.38;;;6.90;99.90;;;;;;5068616;28;20028;-57
2021/01/22 00:27:06;;;;;;;97.35;41.13;;;7.00;99.90;;;;;;5065938;28;20037;-56
2021/01/22 00:29:31;;;;;;;98.43;41.95;;;6.90;99.90;;;;;;5057108;28;20197;-55
2021/01/22 00:31:57;;;;;;;72.63;39.25;;;7.00;99.90;;;;;;5068581;28;20037;-56
2021/01/22 00:34:23;;;;;;;102.78;38.45;;;6.90;99.90;;;;;;5067332;28;20059;-56
2021/01/22 00:36:49;;;;;;;93.88;37.60;;;6.90;99.90;;;;;;5068429;28;20431;-56
2021/01/22 00:39:15;;;;;;;97.60;38.35;;;6.90;99.90;;;;;;5065845;28;20040;-57
2021/01/22 00:41:41;;;;;;;90.70;37.33;;;6.90;99.90;;;;;;5052717;28;20028;-56
2021/01/22 00:44:07;;;;;;;110.38;42.20;;;7.00;99.90;;;;;;5058659;28;20489;-55
2021/01/22 00:46:33;;;;;;;130.27;42.67;;;7.00;99.90;;;;;;5072237;28;20110;-55
2021/01/22 00:48:58;;;;;;;211.82;46.47;;;7.00;99.90;;;;;;5062005;28;20045;-55
2021/01/22 00:51:24;;;;;;;98.45;38.70;;;7.00;99.90;;;;;;5065392;28;20032;-54
2021/01/22 00:53:50;;;;;;;135.45;43.40;;;6.90;99.90;;;;;;5071944;28;20036;-58
2021/01/22 00:56:15;;;;;;;141.38;44.33;;;7.00;99.90;;;;;;5070753;28;20120;-56
2021/01/22 00:58:41;;;;;;;109.88;41.00;;;7.00;99.90;;;;;;5071607;28;20074;-56
2021/01/22 01:01:07;;;;;;;102.97;41.95;;;7.00;99.90;;;;;;5069868;28;20028;-55
2021/01/22 01:03:32;;;;;;;131.18;42.45;;;6.90;99.90;;;;;;5071774;28;20025;-56
2021/01/22 01:05:58;;;;;;;141.82;42.42;;;6.90;99.90;;;;;;5070821;28;20043;-55
2021/01/22 01:08:24;;;;;;;165.73;45.50;;;6.90;99.90;;;;;;5071804;28;20051;-55
2021/01/22 01:10:49;;;;;;;181.52;44.95;;;6.90;99.90;;;;;;5070322;28;20128;-55
2021/01/22 01:13:15;;;;;;;160.77;44.95;;;6.90;99.90;;;;;;5071181;28;20035;-54
2021/01/22 01:15:41;;;;;;;213.70;45.67;;;6.90;99.90;;;;;;5070133;28;20040;-56
2021/01/22 01:18:06;;;;;;;178.05;46.03;;;6.90;99.90;;;;;;5071364;28;20251;-56
2021/01/22 01:20:32;;;;;;;296.70;48.78;;;6.90;99.90;;;;;;5068260;28;20044;-56
2021/01/22 01:22:58;;;;;;;118.40;41.95;;;6.90;99.90;;;;;;5051178;28;20473;-55
2021/01/22 01:25:24;;;;;;;214.73;47.50;;;6.90;99.90;;;;;;5053997;28;20040;-54
2021/01/22 01:27:50;;;;;;;112.15;40.45;;;6.90;99.90;;;;;;5071002;28;20020;-54
2021/01/22 01:30:16;;;;;;;176.15;44.47;;;6.90;99.90;;;;;;5070162;28;20411;-55
2021/01/22 01:32:42;;;;;;;253.25;48.67;;;6.90;99.90;;;;;;5056170;28;20033;-54
2021/01/22 01:35:08;;;;;;;213.25;48.05;;;6.90;99.90;;;;;;5061748;28;20640;-56
2021/01/22 01:37:35;;;;;;;203.45;48.55;;;6.90;99.90;;;;;;5070903;28;20028;-54
2021/01/22 01:40:00;;;;;;;173.07;45.65;;;6.90;99.90;;;;;;5069758;28;20472;-55
2021/01/22 01:42:26;;;;;;;162.60;43.35;;;7.00;99.90;;;;;;5063822;28;20115;-54
2021/01/22 01:44:52;;;;;;;231.85;49.95;;;7.00;99.90;;;;;;5050490;28;20538;-53
2021/01/22 01:47:17;;;;;;;161.55;46.10;;;6.90;99.90;;;;;;5057051;28;20044;-54
2021/01/22 01:49:44;;;;;;;216.70;48.78;;;7.00;99.90;;;;;;5070769;28;20031;-54
2021/01/22 01:52:09;;;;;;;175.80;46.67;;;7.00;99.90;;;;;;5069084;28;20498;-57
2021/01/22 01:54:36;;;;;;;140.55;44.65;;;7.00;99.90;;;;;;5050612;28;20111;-56
2021/01/22 01:57:02;;;;;;;137.00;44.20;;;7.10;99.90;;;;;;5054098;28;20355;-56
2021/01/22 01:59:29;;;;;;;132.98;41.70;;;7.10;99.90;;;;;;5050660;28;20102;-56
2021/01/22 02:01:57;;;;;;;104.45;39.35;;;7.10;99.90;;;;;;5067167;28;20190;-57
2021/01/22 02:04:23;;;;;;;179.48;47.20;;;7.10;99.90;;;;;;5070600;28;20528;-58
2021/01/22 02:06:49;;;;;;;274.77;47.72;;;7.10;99.90;;;;;;5064061;28;20299;-56
2021/01/22 02:09:14;;;;;;;266.83;47.78;;;7.10;99.90;;;;;;5068481;28;20123;-57
2021/01/22 02:11:41;;;;;;;515.33;58.22;;;7.00;99.90;;;;;;5070114;28;20082;-57
2021/01/22 02:14:06;;;;;;;164.00;42.97;;;7.00;99.90;;;;;;5069489;28;20040;-56
2021/01/22 02:16:33;;;;;;;150.93;46.28;;;7.10;99.90;;;;;;5069427;28;20032;-56
2021/01/22 02:19:01;;;;;;;213.52;45.50;;;7.10;99.90;;;;;;5069990;28;20063;-57
2021/01/22 02:21:29;;;;;;;281.00;47.63;;;7.10;99.90;;;;;;5069210;28;20125;-58
2021/01/22 02:24:18;;;;;;;174.38;47.53;;;7.00;99.90;;;;;;5069824;28;20033;-57
2021/01/22 02:26:56;;;;;;;363.38;51.72;;;7.10;99.90;;;;;;5063648;28;20067;-58
2021/01/22 02:29:23;;;;;;;189.60;44.42;;;7.10;99.90;;;;;;5068536;28;20039;-56
2021/01/22 02:31:53;;;;;;;252.90;48.47;;;7.10;99.90;;;;;;5069999;28;20112;-56
2021/01/22 02:34:25;;;;;;;134.68;41.35;;;7.00;99.90;;;;;;5069009;28;20119;-57
2021/01/22 02:36:56;;;;;;;175.25;45.10;;;7.00;99.90;;;;;;5068941;28;20525;-57
2021/01/22 02:39:26;;;;;;;169.32;43.22;;;7.00;99.90;;;;;;5069788;28;20040;-55
2021/01/22 02:41:55;;;;;;;228.45;44.20;;;7.00;99.90;;;;;;5069132;28;20040;-55
2021/01/22 02:44:22;;;;;;;135.07;41.88;;;7.00;99.90;;;;;;5069266;28;20435;-57
2021/01/22 02:46:48;;;;;;;132.45;43.45;;;7.00;99.90;;;;;;5066600;28;20087;-58
2021/01/22 02:49:14;;;;;;;135.95;45.25;;;7.00;99.90;;;;;;5069007;28;20492;-58
2021/01/22 02:51:40;;;;;;;180.07;45.40;;;7.10;99.90;;;;;;5069581;28;20468;-58
2021/01/22 02:54:06;;;;;;;269.27;47.38;;;7.10;99.90;;;;;;5068802;28;20111;-56
2021/01/22 02:56:43;;;;;;;127.47;39.00;;;7.10;99.90;;;;;;5251485;22;20214;-56
2021/01/22 02:59:47;;;;;;;159.05;42.85;;;7.10;99.90;;;;;;5047428;28;20110;-57
2021/01/22 03:02:38;;;;;;;167.18;37.88;;;7.10;99.90;;;;;;5048167;28;20041;-55
2021/01/22 03:05:05;;;;;;;119.10;37.33;;;7.20;99.90;;;;;;5031109;28;20037;-55
2021/01/22 03:07:46;;;;;;;112.57;36.05;;;7.20;99.90;;;;;;5047684;28;20479;-56
2021/01/22 03:10:16;;;;;;;141.23;34.03;;;7.20;99.90;;;;;;5049575;28;20556;-57
2021/01/22 03:12:48;;;;;;;110.18;32.42;;;7.30;99.90;;;;;;5047523;28;20033;-54
2021/01/22 03:15:21;;;;;;;97.70;31.27;;;7.30;99.90;;;;;;5046996;28;20025;-58
2021/01/22 03:17:47;;;;;;;85.50;29.35;;;7.30;99.90;;;;;;5048428;28;20488;-56
2021/01/22 03:20:20;;;;;;;126.85;31.05;;;7.30;99.90;;;;;;5049111;28;20040;-57
2021/01/22 03:22:46;;;;;;;131.52;30.30;;;7.30;99.90;;;;;;5047585;28;20385;-58
2021/01/22 03:25:13;;;;;;;152.93;31.38;;;7.30;99.90;;;;;;5049184;28;20043;-56
2021/01/22 03:27:39;;;;;;;113.28;28.60;;;7.30;99.90;;;;;;5048282;28;20128;-55
2021/01/22 03:30:06;;;;;;;186.50;31.27;;;7.40;99.90;;;;;;5044995;28;20060;-57
2021/01/22 03:32:32;;;;;;;106.82;25.65;;;7.40;99.90;;;;;;5047602;28;20036;-56
2021/01/22 03:34:58;;;;;;;83.75;22.92;;;7.40;99.90;;;;;;5047942;28;20047;-57
2021/01/22 03:37:24;;;;;;;97.63;26.05;;;7.40;99.90;;;;;;5049033;28;20033;-57
2021/01/22 03:39:49;;;;;;;85.00;22.75;;;7.50;99.90;;;;;;5047593;28;20045;-56
2021/01/22 03:42:15;;;;;;;97.65;22.55;;;7.50;99.90;;;;;;5048789;28;20555;-57
2021/01/22 03:44:41;;;;;;;104.45;22.58;;;7.60;99.90;;;;;;5047705;28;20048;-57
2021/01/22 03:47:07;;;;;;;67.97;20.65;;;7.60;99.90;;;;;;5049406;28;20357;-55
2021/01/22 03:49:33;;;;;;;67.40;20.30;;;7.60;99.90;;;;;;5047205;28;20435;-55
2021/01/22 03:52:00;;;;;;;78.28;21.30;;;7.50;99.90;;;;;;5045323;28;20461;-53
2021/01/22 03:54:26;;;;;;;79.65;20.52;;;7.60;99.90;;;;;;5048024;28;20044;-58
2021/01/22 03:56:52;;;;;;;69.43;20.35;;;7.60;99.90;;;;;;5048700;28;20052;-57
2021/01/22 03:59:18;;;;;;;54.30;18.30;;;7.60;99.90;;;;;;5047336;28;20147;-54
2021/01/22 04:01:43;;;;;;;112.68;20.50;;;7.50;99.90;;;;;;5046878;28;20044;-58
2021/01/22 04:04:09;;;;;;;69.82;18.80;;;7.60;99.90;;;;;;5048984;28;20033;-57
2021/01/22 04:06:36;;;;;;;71.93;17.30;;;7.60;99.90;;;;;;5047572;28;20041;-56
2021/01/22 04:09:03;;;;;;;73.60;16.35;;;7.60;99.90;;;;;;5048536;28;20113;-53
2021/01/22 04:11:29;;;;;;;70.47;15.60;;;7.60;99.90;;;;;;5046505;28;20108;-58
2021/01/22 04:13:55;;;;;;;65.80;15.02;;;7.60;99.90;;;;;;5048694;28;20124;-58
2021/01/22 04:16:20;;;;;;;64.70;16.10;;;7.60;99.90;;;;;;5047694;28;20435;-56
2021/01/22 04:18:46;;;;;;;41.00;13.07;;;7.60;99.90;;;;;;5046230;28;20044;-56
2021/01/22 04:21:12;;;;;;;42.92;13.10;;;7.60;99.90;;;;;;5047199;28;20124;-54
2021/01/22 04:23:38;;;;;;;42.85;12.77;;;7.60;99.90;;;;;;5047630;28;20045;-58
2021/01/22 04:26:04;;;;;;;41.15;12.68;;;7.70;99.90;;;;;;5047416;28;20124;-58
2021/01/22 04:28:29;;;;;;;36.13;10.55;;;7.70;99.90;;;;;;5048312;28;20117;-57
2021/01/22 04:30:55;;;;;;;34.33;11.75;;;7.80;99.90;;;;;;5046420;28;20028;-59
2021/01/22 04:33:21;;;;;;;42.28;9.45;;;7.90;99.90;;;;;;5048434;28;20029;-59
2021/01/22 04:35:47;;;;;;;26.15;8.27;;;7.90;99.90;;;;;;5047216;28;20037;-59
2021/01/22 04:38:12;;;;;;;32.22;6.53;;;7.90;99.90;;;;;;5048054;28;20423;-59
2021/01/22 04:40:38;;;;;;;22.85;6.20;;;7.90;99.90;;;;;;5047420;28;20128;-58
2021/01/22 04:43:04;;;;;;;20.10;4.55;;;7.90;99.90;;;;;;5045447;28;20040;-58
2021/01/22 04:45:30;;;;;;;34.42;5.15;;;8.00;99.90;;;;;;5048230;28;20036;-58
2021/01/22 04:48:02;;;;;;;25.48;4.75;;;8.00;99.90;;;;;;5047640;28;20037;-58
2021/01/22 04:50:29;;;;;;;17.27;3.45;;;8.00;99.90;;;;;;5048516;28;20033;-56
2021/01/22 04:52:57;;;;;;;19.88;2.85;;;8.10;99.90;;;;;;5046371;28;20478;-58
2021/01/22 04:55:26;;;;;;;14.38;2.40;;;8.10;99.90;;;;;;5047885;28;20053;-56
2021/01/22 04:57:54;;;;;;;23.00;2.67;;;8.10;99.90;;;;;;5046991;28;20072;-57
2021/01/22 05:00:23;;;;;;;21.63;2.28;;;8.20;99.90;;;;;;5047377;28;20049;-58
2021/01/22 05:02:54;;;;;;;20.42;2.70;;;8.20;99.90;;;;;;5046125;28;20403;-57
2021/01/22 05:05:20;;;;;;;6.93;2.08;;;8.20;99.90;;;;;;5047496;28;20025;-58
2021/01/22 05:07:47;;;;;;;21.67;1.90;;;8.20;99.90;;;;;;5047712;28;20115;-59
2021/01/22 05:10:13;;;;;;;9.80;1.30;;;8.20;99.90;;;;;;5047038;28;20028;-57
2021/01/22 05:12:40;;;;;;;15.48;1.67;;;8.20;99.90;;;;;;5047201;28;20048;-56
2021/01/22 05:15:16;;;;;;;17.95;1.73;;;8.20;99.90;;;;;;5046175;28;20035;-58
2021/01/22 05:17:55;;;;;;;;;;;8.30;99.90;;;;;;5048320;28;20033;-57
2021/01/22 05:20:28;;;;;;;11.27;1.75;;;8.20;99.90;;;;;;5046855;28;20280;-58
2021/01/22 05:22:54;;;;;;;8.55;2.08;;;8.20;99.90;;;;;;5043653;28;20037;-58
2021/01/22 05:25:20;;;;;;;21.35;1.45;;;8.20;99.90;;;;;;5046362;28;20043;-58
2021/01/22 05:27:50;;;;;;;16.02;1.23;;;8.10;99.90;;;;;;5047127;28;20029;-58
2021/01/22 05:30:18;;;;;;;11.82;2.40;;;8.20;99.90;;;;;;5048379;28;20120;-56
2021/01/22 05:32:43;;;;;;;10.95;1.27;;;8.20;99.90;;;;;;5048952;28;20040;-58
2021/01/22 05:35:10;;;;;;;16.00;1.77;;;8.20;99.90;;;;;;5050357;28;20087;-57
2021/01/22 05:37:50;;;;;;;10.25;1.60;;;8.10;99.90;;;;;;5048484;28;20040;-59
2021/01/22 05:40:17;;;;;;;11.07;1.33;;;8.10;99.90;;;;;;5048016;28;20044;-58
2021/01/22 05:42:56;;;;;;;13.40;1.95;;;8.10;99.90;;;;;;5051174;28;20390;-57
2021/01/22 05:45:42;;;;;;;7.53;1.25;;;8.00;99.90;;;;;;5050024;28;20033;-58
2021/01/22 05:48:22;;;;;;;7.65;1.77;;;8.10;99.90;;;;;;5032763;28;20411;-55
2021/01/22 05:50:50;;;;;;;10.45;1.27;;;8.10;99.90;;;;;;5051034;28;20121;-58
2021/01/22 05:53:18;;;;;;;12.55;1.98;;;8.10;99.90;;;;;;5050138;28;20037;-57
2021/01/22 05:55:44;;;;;;;6.75;1.80;;;8.10;99.90;;;;;;5050737;28;20032;-58
2021/01/22 05:58:27;;;;;;;9.75;2.17;;;8.10;99.90;;;;;;5048825;28;20065;-57
2021/01/22 06:01:05;;;;;;;11.45;2.60;;;8.10;99.90;;;;;;5036763;28;20064;-59
2021/01/22 06:03:31;;;;;;;12.18;1.85;;;8.10;99.90;;;;;;5049649;28;20178;-56
2021/01/22 06:05:57;;;;;;;12.85;2.53;;;8.00;99.90;;;;;;5050575;28;20115;-59
2021/01/22 06:08:23;;;;;;;15.25;3.88;;;8.00;99.90;;;;;;5049397;28;20029;-58
2021/01/22 06:10:53;;;;;;;14.82;2.50;;;8.00;99.90;;;;;;5050791;28;20036;-59
2021/01/22 06:13:27;;;;;;;8.43;3.25;;;8.00;99.90;;;;;;5048590;28;20064;-58
2021/01/22 06:15:58;;;;;;;20.80;7.32;;;8.00;99.90;;;;;;5050708;28;20037;-59
2021/01/22 06:18:31;;;;;;;22.30;5.97;;;8.10;99.90;;;;;;5046438;28;20377;-58
2021/01/22 06:21:13;;;;;;;16.70;3.75;;;8.10;99.90;;;;;;5050053;28;20061;-57
2021/01/22 06:23:39;;;;;;;17.10;4.10;;;8.00;99.90;;;;;;5048246;28;20033;-59
2021/01/22 06:26:06;;;;;;;12.07;3.90;;;8.00;99.90;;;;;;5050175;28;20040;-58
2021/01/22 06:28:33;;;;;;;18.73;4.10;;;8.00;99.90;;;;;;5050418;28;20024;-58
2021/01/22 06:30:59;;;;;;;19.10;3.88;;;8.00;99.90;;;;;;5045683;28;20029;-58
2021/01/22 06:33:27;;;;;;;17.88;4.13;;;8.00;99.90;;;;;;5048814;28;20045;-58
2021/01/22 06:35:53;;;;;;;22.92;4.38;;;8.00;99.90;;;;;;5050126;28;20504;-59
2021/01/22 06:38:22;;;;;;;20.52;4.47;;;8.00;99.90;;;;;;5049254;28;20469;-59
2021/01/22 06:40:50;;;;;;;11.77;4.53;;;8.10;99.90;;;;;;5048616;28;20041;-58
2021/01/22 06:43:17;;;;;;;15.07;4.78;;;8.00;99.90;;;;;;5049169;28;20037;-58
2021/01/22 06:45:43;;;;;;;14.77;4.28;;;8.00;99.90;;;;;;5048756;28;20033;-58
2021/01/22 06:48:09;;;;;;;18.90;4.78;;;8.10;99.90;;;;;;5048082;28;20289;-57
2021/01/22 06:50:36;;;;;;;15.05;5.30;;;8.10;99.90;;;;;;5050101;28;20343;-56
2021/01/22 06:53:04;;;;;;;19.77;4.13;;;8.10;99.90;;;;;;5047732;28;20131;-57
2021/01/22 06:55:30;;;;;;;18.10;4.18;;;8.10;99.90;;;;;;5042200;28;20045;-55
2021/01/22 06:58:25;;;;;;;26.85;5.20;;;8.10;99.90;;;;;;5048002;28;20064;-55
2021/01/22 07:00:52;;;;;;;16.38;4.10;;;8.10;99.90;;;;;;5045834;28;20455;-56
2021/01/22 07:03:36;;;;;;;28.08;5.05;;;8.10;99.90;;;;;;5048221;28;20541;-58
2021/01/22 07:06:07;;;;;;;19.38;5.60;;;8.10;99.90;;;;;;5049692;28;20033;-57
2021/01/22 07:08:47;;;;;;;20.30;4.10;;;8.00;99.90;;;;;;5049249;28;20039;-56
2021/01/22 07:11:13;;;;;;;15.40;4.53;;;8.10;99.90;;;;;;5047276;28;20150;-57
2021/01/22 07:13:42;;;;;;;14.18;4.10;;;8.10;99.90;;;;;;5040843;28;20029;-56
2021/01/22 07:16:10;;;;;;;20.17;4.82;;;8.10;99.90;;;;;;5048157;28;20710;-57
2021/01/22 07:18:56;;;;;;;14.93;5.10;;;8.20;99.90;;;;;;5048373;28;20325;-56
2021/01/22 07:21:29;;;;;;;19.00;5.40;;;8.20;99.90;;;;;;5047652;28;20037;-56
2021/01/22 07:24:12;;;;;;;24.83;4.95;;;8.20;99.90;;;;;;5047146;28;20044;-58
2021/01/22 07:26:45;;;;;;;25.95;5.32;;;8.20;99.90;;;;;;5046996;28;20443;-57
2021/01/22 07:29:25;;;;;;;14.57;4.32;;;8.20;99.90;;;;;;5045850;28;20404;-57
2021/01/22 07:32:04;;;;;;;27.27;4.82;;;8.20;99.90;;;;;;5049202;28;20480;-57
2021/01/22 07:34:51;;;;;;;28.50;5.22;;;8.20;99.90;;;;;;5045052;28;20593;-57
2021/01/22 07:37:19;;;;;;;27.90;5.07;;;8.20;99.90;;;;;;5029426;28;20033;-58
2021/01/22 07:39:45;;;;;;;16.77;5.35;;;8.20;99.90;;;;;;5045568;28;20044;-60
2021/01/22 07:42:19;;;;;;;28.15;4.95;;;8.20;99.90;;;;;;5049196;28;20025;-58
2021/01/22 07:44:47;;;;;;;27.73;5.95;;;8.20;99.90;;;;;;5046471;28;20519;-58
2021/01/22 07:47:27;;;;;;;47.40;20.58;;;8.30;99.90;;;;;;5049231;28;20036;-57
2021/01/22 07:49:58;;;;;;;17.98;7.70;;;8.30;99.90;;;;;;5045035;28;20091;-57
2021/01/22 07:52:24;;;;;;;16.73;5.95;;;8.30;99.90;;;;;;5031326;28;20112;-58
2021/01/22 07:54:51;;;;;;;16.67;5.60;;;8.30;99.90;;;;;;5028680;28;20120;-57
2021/01/22 07:57:18;;;;;;;22.52;5.85;;;8.30;99.90;;;;;;5044323;28;20140;-56
2021/01/22 07:59:46;;;;;;;20.67;4.38;;;8.30;99.90;;;;;;5048917;28;20043;-56
2021/01/22 08:02:16;;;;;;;23.33;4.55;;;8.20;99.90;;;;;;5046547;28;20416;-58
2021/01/22 08:04:42;;;;;;;16.45;5.10;;;8.30;99.90;;;;;;5045290;28;20053;-57
2021/01/22 08:07:08;;;;;;;28.15;5.55;;;8.20;99.90;;;;;;5047716;28;20036;-57
2021/01/22 08:09:35;;;;;;;15.50;5.88;;;8.20;99.90;;;;;;5048532;28;20039;-58
2021/01/22 08:12:11;;;;;;;20.80;5.03;;;8.20;99.90;;;;;;5047636;28;20512;-55
2021/01/22 08:14:38;;;;;;;27.83;5.72;;;8.20;99.90;;;;;;5047269;28;20489;-56
2021/01/22 08:17:07;;;;;;;18.33;5.40;;;8.30;99.90;;;;;;5048392;28;20082;-55
2021/01/22 08:19:33;;;;;;;27.73;4.45;;;8.20;99.90;;;;;;5046827;28;20045;-55
2021/01/22 08:22:00;;;;;;;26.08;5.30;;;8.20;99.90;;;;;;5044117;28;20518;-56
2021/01/22 08:24:27;;;;;;;18.58;5.40;;;8.30;99.90;;;;;;5047071;28;20036;-53
2021/01/22 08:27:04;;;;;;;29.27;6.55;;;8.30;99.90;;;;;;5047718;28;20036;-55
2021/01/22 08:29:33;;;;;;;32.25;7.32;;;8.40;99.90;;;;;;5044461;28;20110;-55
2021/01/22 08:32:01;;;;;;;13.85;5.50;;;8.40;99.90;;;;;;5032477;28;20033;-55
2021/01/22 08:34:29;;;;;;;18.20;6.25;;;8.40;99.90;;;;;;5048568;28;20416;-55
2021/01/22 08:36:57;;;;;;;20.60;5.45;;;8.50;99.90;;;;;;5048314;28;20028;-55
2021/01/22 08:39:23;;;;;;;27.70;6.50;;;8.50;99.90;;;;;;5048054;28;20044;-55
2021/01/22 08:41:49;;;;;;;56.78;8.75;;;8.50;99.90;;;;;;5047632;28;20033;-56
2021/01/22 08:44:15;;;;;;;24.67;7.22;;;8.50;99.90;;;;;;5047040;28;20124;-54
2021/01/22 08:46:49;;;;;;;30.65;11.75;;;8.50;99.90;;;;;;5048009;28;20029;-57
2021/01/22 08:49:16;;;;;;;22.58;11.13;;;8.50;99.90;;;;;;5047227;28;20033;-57
2021/01/22 08:51:42;;;;;;;30.00;11.77;;;8.60;99.90;;;;;;5046722;28;20045;-57
2021/01/22 08:54:08;;;;;;;59.50;16.88;;;8.60;99.90;;;;;;5046819;28;20032;-55
2021/01/22 08:56:34;;;;;;;39.92;13.73;;;8.60;99.90;;;;;;5046582;28;20087;-55
2021/01/22 08:59:01;;;;;;;32.47;12.73;;;8.70;99.90;;;;;;5046571;28;20052;-52
2021/01/22 09:01:46;;;;;;;37.47;14.00;;;8.80;99.90;;;;;;5046523;28;20025;-54
2021/01/22 09:04:25;;;;;;;43.72;16.80;;;8.90;99.90;;;;;;5046447;28;20771;-54
2021/01/22 09:07:02;;;;;;;45.58;17.80;;;8.90;99.90;;;;;;5047810;28;20029;-57
2021/01/22 09:09:46;;;;;;;39.15;16.73;;;8.90;99.90;;;;;;5050598;28;20087;-55
2021/01/22 09:12:14;;;;;;;42.88;16.65;;;9.00;99.90;;;;;;5048108;28;20086;-55
2021/01/22 09:14:49;;;;;;;52.90;16.70;;;9.00;99.90;;;;;;5044155;28;20094;-54
2021/01/22 09:17:28;;;;;;;38.25;19.75;;;9.00;99.90;;;;;;5051695;28;20106;-56
2021/01/22 09:20:07;;;;;;;60.78;21.27;;;9.00;99.90;;;;;;5048604;28;20053;-56
2021/01/22 09:22:34;;;;;;;47.15;21.52;;;9.00;99.90;;;;;;5051308;28;20033;-55
2021/01/22 09:25:01;;;;;;;61.42;19.90;;;9.00;99.90;;;;;;5051554;28;20029;-55
2021/01/22 09:27:28;;;;;;;56.88;16.88;;;9.00;99.90;;;;;;5051569;28;20107;-53
2021/01/22 09:29:54;;;;;;;47.70;15.90;;;9.00;99.90;;;;;;5048870;28;20292;-55
2021/01/22 09:32:19;;;;;;;54.97;17.23;;;9.00;99.90;;;;;;5050259;28;20056;-56
2021/01/22 09:34:45;;;;;;;52.75;16.60;;;9.00;99.90;;;;;;5048928;28;20524;-53
2021/01/22 09:37:11;;;;;;;47.95;17.15;;;9.00;99.90;;;;;;5047957;28;20044;-53
2021/01/22 09:39:37;;;;;;;58.20;18.90;;;9.00;99.90;;;;;;5051214;28;20045;-53
2021/01/22 09:42:03;;;;;;;55.42;19.35;;;9.10;99.90;;;;;;5049230;28;20039;-56
2021/01/22 09:44:29;;;;;;;41.47;16.42;;;9.00;99.90;;;;;;5051110;28;20044;-53
2021/01/22 09:46:55;;;;;;;43.38;15.52;;;9.00;99.90;;;;;;5045705;28;20037;-56
2021/01/22 09:49:21;;;;;;;44.38;16.55;;;9.10;99.90;;;;;;5042430;28;20037;-56
2021/01/22 09:51:46;;;;;;;44.80;15.43;;;9.10;99.90;;;;;;5038710;28;20040;-54
2021/01/22 09:54:12;;;;;;;46.03;16.08;;;9.10;99.90;;;;;;5047488;28;20495;-53
2021/01/22 09:56:39;;;;;;;46.75;16.30;;;9.10;99.90;;;;;;5049766;28;20037;-57
2021/01/22 09:59:06;;;;;;;59.20;16.30;;;9.10;99.90;;;;;;5046761;28;20040;-57
2021/01/22 10:01:33;;;;;;;36.95;10.75;;;9.20;99.90;;;;;;5050646;28;20033;-56
2021/01/22 10:03:59;;;;;;;30.25;9.95;;;9.20;99.90;;;;;;5047468;28;20791;-57
2021/01/22 10:06:24;;;;;;;29.55;9.18;;;9.20;99.90;;;;;;5047352;28;20108;-57
2021/01/22 10:08:50;;;;;;;34.55;11.75;;;9.20;99.90;;;;;;5048718;28;20060;-55
2021/01/22 10:11:16;;;;;;;42.78;12.45;;;9.20;99.90;;;;;;5045709;28;20061;-55
2021/01/22 10:13:42;;;;;;;31.80;10.52;;;9.30;99.90;;;;;;5050383;28;20057;-54
2021/01/22 10:16:08;;;;;;;32.65;10.73;;;9.20;99.90;;;;;;5044078;28;20044;-55
2021/01/22 10:18:33;;;;;;;35.85;12.45;;;9.20;99.90;;;;;;5042897;28;20047;-54
2021/01/22 10:20:59;;;;;;;37.50;13.90;;;9.30;99.90;;;;;;5048294;28;20037;-56
2021/01/22 10:23:25;;;;;;;45.60;13.82;;;9.30;99.90;;;;;;5048944;28;20041;-57
2021/01/22 10:25:50;;;;;;;38.30;13.77;;;9.30;99.90;;;;;;5048994;28;20084;-56
2021/01/22 10:28:16;;;;;;;54.30;15.70;;;9.40;99.90;;;;;;5050923;28;20103;-54
2021/01/22 10:30:42;;;;;;;34.78;13.18;;;9.40;99.90;;;;;;5050325;28;20040;-56
2021/01/22 10:33:08;;;;;;;33.20;12.10;;;9.30;99.90;;;;;;5050395;28;20040;-56
2021/01/22 10:35:34;;;;;;;40.20;11.52;;;9.40;99.90;;;;;;5050486;28;20416;-56
2021/01/22 10:37:59;;;;;;;43.90;12.88;;;9.30;99.90;;;;;;5049985;28;20772;-55
2021/01/22 10:40:25;;;;;;;53.85;14.98;;;9.30;99.90;;;;;;5050045;28;20045;-54
2021/01/22 10:42:51;;;;;;;43.10;13.05;;;9.30;99.90;;;;;;5050186;28;20040;-55
2021/01/22 10:45:17;;;;;;;55.88;15.48;;;9.30;99.90;;;;;;5049775;28;20533;-53
2021/01/22 10:47:43;;;;;;;60.88;16.25;;;9.40;99.90;;;;;;5050113;28;20032;-56
2021/01/22 10:50:09;;;;;;;40.55;13.75;;;9.30;99.90;;;;;;5050281;28;20039;-56
2021/01/22 10:52:35;;;;;;;84.97;15.02;;;9.40;99.90;;;;;;5031675;28;20496;-55
2021/01/22 10:55:01;;;;;;;58.25;13.20;;;9.40;99.90;;;;;;5049961;28;20037;-55
2021/01/22 10:57:27;;;;;;;65.15;14.25;;;9.40;99.90;;;;;;5045482;28;20084;-55
2021/01/22 10:59:52;;;;;;;41.20;14.70;;;9.40;99.90;;;;;;5047115;28;20056;-57
2021/01/22 11:02:18;;;;;;;44.05;15.35;;;9.50;99.90;;;;;;5047777;28;20480;-57
2021/01/22 11:04:44;;;;;;;41.90;15.15;;;9.50;99.90;;;;;;5048999;28;20025;-57
2021/01/22 11:07:10;;;;;;;48.75;16.30;;;9.40;99.90;;;;;;5045471;28;20087;-57
2021/01/22 11:09:35;;;;;;;38.88;14.65;;;9.40;99.90;;;;;;5043829;28;20437;-53
2021/01/22 11:12:05;;;;;;;27.73;13.60;;;9.40;99.90;;;;;;5047764;28;20400;-55
2021/01/22 11:14:31;;;;;;;35.42;13.73;;;9.40;99.90;;;;;;5047709;28;20032;-57
2021/01/22 11:16:56;;;;;;;34.60;13.63;;;9.40;99.90;;;;;;5049683;28;20033;-56
2021/01/22 11:19:22;;;;;;;40.85;14.05;;;9.40;99.90;;;;;;5049507;28;20037;-57
2021/01/22 11:21:48;;;;;;;48.40;14.52;;;9.40;99.90;;;;;;5049509;28;20037;-57
2021/01/22 11:24:14;;;;;;;369.38;28.63;;;9.30;99.90;;;;;;5049256;28;20102;-57
2021/01/22 11:26:39;;;;;;;36.22;15.35;;;9.30;99.90;;;;;;5049198;28;20556;-57
2021/01/22 11:29:05;;;;;;;46.95;18.17;;;9.40;99.90;;;;;;5048208;28;20116;-57
2021/01/22 11:31:31;;;;;;;43.60;16.33;;;9.40;99.90;;;;;;5049352;28;20124;-56
2021/01/22 11:33:56;;;;;;;36.25;17.02;;;9.40;99.90;;;;;;5049158;28;20392;-57
2021/01/22 11:36:23;;;;;;;42.47;17.25;;;9.40;99.90;;;;;;5049086;28;20111;-57
2021/01/22 11:38:49;;;;;;;49.47;18.50;;;9.40;99.90;;;;;;5049066;28;20029;-56
2021/01/22 11:41:15;;;;;;;46.85;17.45;;;9.30;99.90;;;;;;5049179;28;20469;-57
2021/01/22 11:43:41;;;;;;;44.53;18.08;;;9.30;99.90;;;;;;5048644;28;20550;-58
2021/01/22 11:46:07;;;;;;;61.28;19.08;;;9.20;99.90;;;;;;5048937;28;20024;-58
2021/01/22 11:48:33;;;;;;;82.45;21.63;;;9.30;99.90;;;;;;5048958;28;20029;-58
2021/01/22 11:50:58;;;;;;;47.97;19.73;;;9.20;99.90;;;;;;5048767;28;20107;-58
2021/01/22 11:53:24;;;;;;;47.85;20.13;;;9.30;99.90;;;;;;5048798;28;20056;-56
2021/01/22 11:55:50;;;;;;;61.92;22.23;;;9.40;99.90;;;;;;5048714;28;20421;-58
2021/01/22 11:58:16;;;;;;;54.90;22.33;;;9.30;99.90;;;;;;5048255;28;20143;-57
2021/01/22 12:00:41;;;;;;;48.08;20.38;;;9.30;99.90;;;;;;5048779;28;20569;-57
2021/01/22 12:03:07;;;;;;;39.95;19.38;;;9.30;99.90;;;;;;5048563;28;20052;-57
2021/01/22 12:05:33;;;;;;;37.50;20.15;;;9.20;99.90;;;;;;5048766;28;20111;-58
2021/01/22 12:07:59;;;;;;;33.28;16.10;;;9.20;99.90;;;;;;5048548;28;20041;-58
2021/01/22 12:10:24;;;;;;;38.50;16.52;;;9.20;99.90;;;;;;5048636;28;20060;-58
2021/01/22 12:12:50;;;;;;;32.85;13.48;;;9.10;99.90;;;;;;5048752;28;20036;-58
2021/01/22 12:15:16;;;;;;;27.17;13.05;;;9.10;99.90;;;;;;5048464;28;20115;-57
2021/01/22 12:17:42;;;;;;;20.73;11.55;;;9.10;99.90;;;;;;5048311;28;20112;-57
2021/01/22 12:20:08;;;;;;;34.65;12.75;;;9.10;99.90;;;;;;5048229;28;20037;-57
2021/01/22 12:22:34;;;;;;;30.63;12.65;;;9.10;99.90;;;;;;5048651;28;20024;-57
2021/01/22 12:24:59;;;;;;;45.17;17.05;;;9.10;99.90;;;;;;5048328;28;20032;-57
2021/01/22 12:27:25;;;;;;;32.65;13.73;;;9.10;99.90;;;;;;5048483;28;20368;-57
2021/01/22 12:29:51;;;;;;;28.02;12.68;;;9.10;99.90;;;;;;5048120;28;20389;-59
2021/01/22 12:32:16;;;;;;;40.55;14.20;;;9.10;99.90;;;;;;5048184;28;20086;-57
2021/01/22 12:34:43;;;;;;;42.17;16.58;;;9.00;99.90;;;;;;5048261;28;20021;-56
2021/01/22 12:37:09;;;;;;;48.55;18.92;;;9.00;99.90;;;;;;5048222;28;20037;-56
2021/01/22 12:39:35;;;;;;;44.72;15.30;;;9.10;99.90;;;;;;5048721;28;20450;-57
2021/01/22 12:42:00;;;;;;;55.67;18.17;;;9.10;99.90;;;;;;5052177;28;20037;-57